Terminal Aerodrome Forecast
Issued by NWS

Home | Current Version | Previous Version | Text Only | Print | Product List | Glossary On
Versions: 1 2 3 4 5 6 7 8 9 10 11 12 13 14 15 16 17 18 19 20 21 22 23 24 25 26 27 28 29 30 31 32
000
FTUS42 KCAE 252300
TAFDNL
TAF
KDNL 252338Z 2600/2624 24010KT P6SM VCSH SCT035 WS020/24035KT
      TEMPO 2601/2603 24015G25KT TSRA BKN025CB
     FM261000 24005KT 4SM BR SCT007 BKN015 WS020/24035KT
     FM261400 28012G22KT P6SM SCT035=

USA.gov is the U.S. government's official web portal to all federal, state and local government web resources and services.